Aviation Digital Data Service (ADDS)

Output produced by METARs form (1639 UTC 02 September 2014)
found at http://aviationweather.gov/adds/metars/
 
KGSO 021133Z 0212/0312 22006KT P6SM FEW060 SCT150 
     PROB30 0223/0303 6SM -TSRA BKN050CB 
     FM030900 28004KT P6SM BKN100